createdAt,value
2022-12-04T00:02:02.378Z,-2.94
2022-12-04T00:04:35.503Z,-2.95
2022-12-04T00:07:08.250Z,-2.96
2022-12-04T00:09:40.693Z,-2.98
2022-12-04T00:12:13.233Z,-2.96
2022-12-04T00:15:23.555Z,-2.97
2022-12-04T00:17:19.964Z,-3.00
2022-12-04T00:19:52.804Z,-2.99
2022-12-04T00:22:25.671Z,-2.98
2022-12-04T00:24:58.003Z,-2.99
2022-12-04T00:27:30.616Z,-2.99
2022-12-04T00:30:03.058Z,-3.01
2022-12-04T00:32:36.660Z,-2.99
2022-12-04T00:35:10.088Z,-2.99
2022-12-04T00:37:42.468Z,-3.02
2022-12-04T00:40:15.420Z,-3.03
2022-12-04T00:42:47.927Z,-3.00
2022-12-04T00:45:20.395Z,-2.95
2022-12-04T00:47:53.078Z,-2.95
2022-12-04T00:50:25.520Z,-2.95
2022-12-04T00:52:58.684Z,-2.97
2022-12-04T00:55:31.053Z,-2.96
2022-12-04T00:58:03.490Z,-2.98
2022-12-04T01:00:38.018Z,-2.98
2022-12-04T01:03:11.169Z,-2.99
2022-12-04T01:05:46.015Z,-3.03
2022-12-04T01:08:18.641Z,-3.04
2022-12-04T01:11:05.978Z,-3.03
2022-12-04T01:13:38.551Z,-3.04
2022-12-04T01:16:12.947Z,-3.01
2022-12-04T01:18:45.625Z,-3.02
2022-12-04T01:21:18.818Z,-3.02
2022-12-04T01:23:51.412Z,-3.08
2022-12-04T01:26:23.736Z,-3.09
2022-12-04T01:28:56.290Z,-3.07
2022-12-04T01:31:28.786Z,-3.06
2022-12-04T01:34:01.368Z,-3.03
2022-12-04T01:36:33.910Z,-2.97
2022-12-04T01:39:06.314Z,-2.97
2022-12-04T01:41:38.736Z,-3.04
2022-12-04T01:44:23.251Z,-3.09
2022-12-04T01:46:58.563Z,-3.13
2022-12-04T01:49:44.305Z,-3.11
2022-12-04T01:52:21.553Z,-3.09
2022-12-04T01:55:00.140Z,-3.08
2022-12-04T01:57:33.795Z,-3.08
2022-12-04T02:00:15.883Z,-3.10
2022-12-04T02:02:48.865Z,-3.05
2022-12-04T02:05:22.738Z,-3.02
2022-12-04T02:07:59.045Z,-3.06
2022-12-04T02:10:39.756Z,-3.14
2022-12-04T02:13:28.790Z,-3.22
2022-12-04T02:16:17.758Z,-3.29
2022-12-04T02:18:55.129Z,-3.31
2022-12-04T02:21:45.030Z,-3.31
2022-12-04T02:24:48.285Z,-3.34
2022-12-04T02:27:49.151Z,-3.38
2022-12-04T02:30:22.041Z,-3.40
2022-12-04T02:33:23.631Z,-3.36
2022-12-04T02:36:16.251Z,-3.38
2022-12-04T02:39:26.903Z,-3.43
2022-12-04T02:42:19.053Z,-3.45
2022-12-04T02:47:44.750Z,-3.44
2022-12-04T02:50:21.319Z,-3.44
2022-12-04T02:52:58.010Z,-3.44
2022-12-04T02:55:38.786Z,-3.46
2022-12-04T02:58:25.029Z,-3.49
2022-12-04T03:00:58.646Z,-3.49
2022-12-04T03:03:32.448Z,-3.49
2022-12-04T03:06:09.072Z,-3.47
2022-12-04T03:08:49.007Z,-3.46
2022-12-04T03:11:21.784Z,-3.45
2022-12-04T03:14:02.723Z,-3.47
2022-12-04T03:16:40.071Z,-3.51
2022-12-04T03:19:22.753Z,-3.57
2022-12-04T03:22:05.871Z,-3.59
2022-12-04T03:24:45.017Z,-3.59
2022-12-04T03:27:40.745Z,-3.61
2022-12-04T03:30:16.944Z,-3.60
2022-12-04T03:33:06.512Z,-3.61
2022-12-04T03:36:07.593Z,-3.66
2022-12-04T03:39:08.686Z,-3.70
2022-12-04T03:41:54.863Z,-3.70
2022-12-04T03:44:47.858Z,-3.70
2022-12-04T03:47:24.257Z,-3.75
2022-12-04T03:50:16.683Z,-3.82
2022-12-04T03:53:33.325Z,-3.89
2022-12-04T03:56:19.446Z,-3.92
2022-12-04T03:59:00.089Z,-3.95
2022-12-04T04:01:38.001Z,-3.96
2022-12-04T04:04:14.691Z,-3.96
2022-12-04T04:06:52.179Z,-3.97
2022-12-04T04:09:27.530Z,-3.95
2022-12-04T04:12:09.291Z,-3.94
2022-12-04T04:15:17.693Z,-3.94
2022-12-04T04:18:08.311Z,-3.88
2022-12-04T04:21:05.827Z,-3.85
2022-12-04T04:24:02.226Z,-3.87
2022-12-04T04:26:38.845Z,-3.86
2022-12-04T04:29:12.009Z,-3.83
2022-12-04T04:31:58.048Z,-3.79
2022-12-04T04:34:56.104Z,-3.80
2022-12-04T04:37:33.305Z,-3.82
2022-12-04T04:40:38.232Z,-3.88
2022-12-04T04:43:47.151Z,-3.89
2022-12-04T04:46:26.559Z,-3.96
2022-12-04T04:49:02.416Z,-4.04
2022-12-04T04:51:36.633Z,-4.02
2022-12-04T04:54:11.373Z,-3.99
2022-12-04T04:56:45.319Z,-3.96
2022-12-04T04:59:18.256Z,-3.96
2022-12-04T05:01:50.818Z,-3.94
2022-12-04T05:04:23.992Z,-3.95
2022-12-04T05:06:56.619Z,-3.92
2022-12-04T05:09:29.146Z,-3.89
2022-12-04T05:12:01.588Z,-3.90
2022-12-04T05:14:34.161Z,-3.96
2022-12-04T05:17:12.364Z,-3.95
2022-12-04T05:19:54.519Z,-4.00
2022-12-04T05:22:34.023Z,-4.06
2022-12-04T05:25:07.019Z,-4.09
2022-12-04T05:27:39.691Z,-4.05
2022-12-04T05:30:12.926Z,-4.06
2022-12-04T05:32:45.457Z,-4.07
2022-12-04T05:35:18.659Z,-4.13
2022-12-04T05:37:51.298Z,-4.17
2022-12-04T05:40:23.803Z,-4.15
2022-12-04T05:42:56.232Z,-4.13
2022-12-04T05:45:28.676Z,-4.15
2022-12-04T05:48:00.990Z,-4.18
2022-12-04T05:50:33.945Z,-4.20
2022-12-04T05:53:06.422Z,-4.20
2022-12-04T05:55:39.155Z,-4.19
2022-12-04T05:58:11.715Z,-4.20
2022-12-04T06:00:44.121Z,-4.20
2022-12-04T06:03:16.727Z,-4.16
2022-12-04T06:05:49.305Z,-4.13
2022-12-04T06:08:21.782Z,-4.16
2022-12-04T06:10:54.429Z,-4.15
2022-12-04T06:13:27.080Z,-4.17
2022-12-04T06:15:59.524Z,-4.20
2022-12-04T06:18:32.460Z,-4.20
2022-12-04T06:21:05.037Z,-4.22
2022-12-04T06:23:38.308Z,-4.18
2022-12-04T06:26:10.929Z,-4.17
2022-12-04T06:28:43.515Z,-4.16
2022-12-04T06:31:19.259Z,-4.19
2022-12-04T06:33:51.811Z,-4.19
2022-12-04T06:36:24.657Z,-4.19
2022-12-04T06:38:57.961Z,-4.18
2022-12-04T06:41:30.735Z,-4.17
2022-12-04T06:44:03.209Z,-4.20
2022-12-04T06:46:36.564Z,-4.19
2022-12-04T06:49:10.677Z,-4.17
2022-12-04T06:51:43.728Z,-4.20
2022-12-04T06:54:16.787Z,-4.23
2022-12-04T06:56:50.673Z,-4.22
2022-12-04T06:59:23.094Z,-4.20
2022-12-04T07:01:55.696Z,-4.17
2022-12-04T07:04:28.189Z,-4.16
2022-12-04T07:07:00.616Z,-4.14
2022-12-04T07:09:34.720Z,-4.14
2022-12-04T07:12:07.902Z,-4.18
2022-12-04T07:14:40.763Z,-4.19
2022-12-04T07:17:13.350Z,-4.21
2022-12-04T07:19:45.942Z,-4.21
2022-12-04T07:22:18.676Z,-4.20
2022-12-04T07:24:51.742Z,-4.16
2022-12-04T07:27:24.360Z,-4.17
2022-12-04T07:29:56.971Z,-4.14
2022-12-04T07:32:29.728Z,-4.13
2022-12-04T07:35:02.868Z,-4.21
2022-12-04T07:37:37.493Z,-4.23
2022-12-04T07:40:11.124Z,-4.20
2022-12-04T07:42:43.629Z,-4.20
2022-12-04T07:45:16.003Z,-4.19
2022-12-04T07:47:50.517Z,-4.22
2022-12-04T07:50:23.166Z,-4.24
2022-12-04T07:52:55.727Z,-4.30
2022-12-04T07:55:28.458Z,-4.33
2022-12-04T07:58:01.033Z,-4.33
2022-12-04T08:00:34.550Z,-4.34
2022-12-04T08:03:07.026Z,-4.35
2022-12-04T08:05:39.884Z,-4.32
2022-12-04T08:08:12.704Z,-4.27
2022-12-04T08:10:45.162Z,-4.27
2022-12-04T08:13:17.475Z,-4.28
2022-12-04T08:15:50.008Z,-4.26
2022-12-04T08:18:22.426Z,-4.23
2022-12-04T08:20:55.133Z,-4.19
2022-12-04T08:23:28.832Z,-4.19
2022-12-04T08:26:02.597Z,-4.15
2022-12-04T08:28:35.194Z,-4.09
2022-12-04T08:31:10.891Z,-4.08
2022-12-04T08:33:44.608Z,-4.10
2022-12-04T08:36:19.227Z,-4.09
2022-12-04T08:38:53.564Z,-4.10
2022-12-04T08:41:26.529Z,-4.14
2022-12-04T08:43:59.926Z,-4.14
2022-12-04T08:46:32.596Z,-4.10
2022-12-04T08:49:05.710Z,-4.05
2022-12-04T08:51:39.331Z,-3.99
2022-12-04T08:54:13.809Z,-3.92
2022-12-04T08:56:46.257Z,-3.92
2022-12-04T08:59:19.297Z,-3.90
2022-12-04T09:01:52.714Z,-3.87
2022-12-04T09:04:25.495Z,-3.88
2022-12-04T09:06:58.040Z,-3.95
2022-12-04T09:09:30.938Z,-3.96
2022-12-04T09:12:03.426Z,-3.95
2022-12-04T09:14:36.088Z,-3.94
2022-12-04T09:17:09.444Z,-3.94
2022-12-04T09:19:41.935Z,-3.84
2022-12-04T09:22:14.712Z,-3.71
2022-12-04T09:24:47.784Z,-3.62
2022-12-04T09:27:20.216Z,-3.59
2022-12-04T09:29:52.734Z,-3.58
2022-12-04T09:32:25.310Z,-3.49
2022-12-04T09:34:57.981Z,-3.46
2022-12-04T09:37:30.661Z,-3.47
2022-12-04T09:40:04.008Z,-3.49
2022-12-04T09:43:10.053Z,-3.54
2022-12-04T09:45:52.261Z,-3.61
2022-12-04T09:48:25.638Z,-3.59
2022-12-04T09:50:58.210Z,-3.57
2022-12-04T09:53:35.510Z,-3.57
2022-12-04T09:56:12.917Z,-3.54
2022-12-04T09:59:01.709Z,-3.52
2022-12-04T10:02:01.674Z,-3.55
2022-12-04T10:04:34.577Z,-3.57
2022-12-04T10:07:16.959Z,-3.55
2022-12-04T10:10:05.645Z,-3.53
2022-12-04T10:13:04.487Z,-3.52
2022-12-04T10:16:00.404Z,-3.45
2022-12-04T10:18:53.453Z,-3.31
2022-12-04T10:21:39.512Z,-2.96
2022-12-04T10:24:45.425Z,-2.26
2022-12-04T10:27:43.549Z,-1.67
2022-12-04T10:30:36.999Z,-0.84
2022-12-04T10:33:23.409Z,0.03
2022-12-04T10:35:56.348Z,0.88
2022-12-04T10:38:36.984Z,1.61
2022-12-04T10:41:38.071Z,2.24
2022-12-04T10:44:16.897Z,2.80
2022-12-04T10:46:49.380Z,3.27
2022-12-04T10:49:44.603Z,3.51
2022-12-04T10:52:17.848Z,3.73
2022-12-04T10:55:09.581Z,4.01
2022-12-04T10:57:47.485Z,4.34
2022-12-04T11:00:36.188Z,4.56
2022-12-04T11:03:14.158Z,4.53
2022-12-04T11:05:56.676Z,4.42
2022-12-04T11:08:42.504Z,4.45
2022-12-04T11:11:15.235Z,4.40
2022-12-04T11:13:47.700Z,4.44
2022-12-04T11:16:43.563Z,4.37
2022-12-04T11:19:25.661Z,4.17
2022-12-04T11:22:08.115Z,3.98
2022-12-04T11:24:43.413Z,3.91
2022-12-04T11:27:44.287Z,3.92
2022-12-04T11:30:23.825Z,3.93
2022-12-04T11:32:57.126Z,3.44
2022-12-04T11:35:30.554Z,2.82
2022-12-04T11:38:17.901Z,2.19
2022-12-04T11:40:56.220Z,1.65
2022-12-04T11:43:30.682Z,1.19
2022-12-04T11:46:07.737Z,0.82
2022-12-04T11:48:46.194Z,0.49
2022-12-04T11:51:44.620Z,0.11
2022-12-04T11:54:40.009Z,-0.18
2022-12-04T11:57:38.103Z,-0.38
2022-12-04T12:00:22.934Z,-0.49
2022-12-04T12:03:18.754Z,-0.61
2022-12-04T12:06:21.675Z,-0.71
2022-12-04T12:09:07.998Z,-0.78
2022-12-04T12:11:45.503Z,-0.80
2022-12-04T12:14:28.269Z,-0.81
2022-12-04T12:17:19.776Z,-0.82
2022-12-04T12:20:06.824Z,-0.88
2022-12-04T12:22:56.429Z,-0.91
2022-12-04T12:25:52.109Z,-0.96
2022-12-04T12:28:36.372Z,-0.98
2022-12-04T12:31:54.325Z,-1.00
2022-12-04T12:34:40.596Z,-1.00
2022-12-04T12:37:20.573Z,-1.07
2022-12-04T12:40:00.572Z,-1.14
2022-12-04T12:42:43.646Z,-1.21
2022-12-04T12:45:29.994Z,-1.30
2022-12-04T12:48:22.917Z,-1.33
2022-12-04T12:51:28.416Z,-1.37
2022-12-04T12:53:40.712Z,-1.42
2022-12-04T12:56:13.448Z,-1.44
2022-12-04T12:58:55.390Z,-1.48
2022-12-04T13:01:52.828Z,-1.53
2022-12-04T13:04:45.500Z,-1.58
2022-12-04T13:07:25.484Z,-1.63
2022-12-04T13:10:24.239Z,-1.72
2022-12-04T13:13:02.664Z,-1.89
2022-12-04T13:16:00.250Z,-2.05
2022-12-04T13:18:37.367Z,-2.14
2022-12-04T13:21:09.679Z,-2.24
2022-12-04T13:24:15.871Z,-2.14
2022-12-04T13:27:24.826Z,-1.97
2022-12-04T13:30:22.319Z,-1.80
2022-12-04T13:33:25.572Z,-1.69
2022-12-04T13:36:33.143Z,-1.67
2022-12-04T13:39:35.725Z,-1.67
2022-12-04T13:42:10.301Z,-1.70
2022-12-04T13:44:43.342Z,-1.75
2022-12-04T13:47:16.046Z,-1.79
2022-12-04T13:49:48.365Z,-1.80
2022-12-04T13:52:29.603Z,-1.85
2022-12-04T13:55:02.689Z,-1.84
2022-12-04T13:57:35.848Z,-1.85
2022-12-04T14:00:31.570Z,-1.84
2022-12-04T14:03:10.442Z,-1.83
2022-12-04T14:05:43.683Z,-1.90
2022-12-04T14:08:23.696Z,-1.95
2022-12-04T14:11:08.499Z,-1.98
2022-12-04T14:13:47.417Z,-2.04
2022-12-04T14:16:36.524Z,-2.08
2022-12-04T14:19:08.966Z,-2.11
2022-12-04T14:21:44.772Z,-2.04
2022-12-04T14:24:20.475Z,-2.01
2022-12-04T14:27:11.099Z,-2.00
2022-12-04T14:29:37.732Z,-2.00
2022-12-04T14:32:19.027Z,-2.03
2022-12-04T14:34:51.998Z,-2.06
2022-12-04T14:37:32.144Z,-2.09
2022-12-04T14:40:07.551Z,-2.12
2022-12-04T14:42:40.818Z,-2.17
2022-12-04T14:45:32.695Z,-2.19
2022-12-04T14:48:31.396Z,-2.26
2022-12-04T14:51:20.768Z,-2.31
2022-12-04T14:54:31.358Z,-2.32
2022-12-04T14:57:29.208Z,-2.38
2022-12-04T15:00:01.781Z,-2.44
2022-12-04T15:02:43.179Z,-2.44
2022-12-04T15:05:22.700Z,-2.45
2022-12-04T15:08:01.938Z,-2.44
2022-12-04T15:10:54.127Z,-2.45
2022-12-04T15:13:32.120Z,-2.46
2022-12-04T15:16:21.746Z,-2.49
2022-12-04T15:19:01.521Z,-2.51
2022-12-04T15:21:41.090Z,-2.49
2022-12-04T15:24:22.981Z,-2.48
2022-12-04T15:26:55.451Z,-2.51
2022-12-04T15:29:29.867Z,-2.54
2022-12-04T15:32:06.379Z,-2.56
2022-12-04T15:34:48.471Z,-2.55
2022-12-04T15:37:32.312Z,-2.54
2022-12-04T15:40:11.491Z,-2.52
2022-12-04T15:42:43.879Z,-2.53
2022-12-04T15:45:26.429Z,-2.56
2022-12-04T15:47:58.956Z,-2.60
2022-12-04T15:50:31.721Z,-2.60
2022-12-04T15:53:08.762Z,-2.66
2022-12-04T15:55:50.671Z,-2.69
2022-12-04T15:58:34.178Z,-2.72
2022-12-04T16:01:10.548Z,-2.74
2022-12-04T16:03:52.758Z,-2.75
2022-12-04T16:06:31.110Z,-2.75
2022-12-04T16:09:26.883Z,-2.79
2022-12-04T16:12:06.784Z,-2.84
2022-12-04T16:14:39.649Z,-2.86
2022-12-04T16:17:12.470Z,-2.87
2022-12-04T16:19:44.815Z,-2.86
2022-12-04T16:22:21.178Z,-2.88
2022-12-04T16:24:54.368Z,-2.94
2022-12-04T16:27:27.768Z,-2.96
2022-12-04T16:30:00.926Z,-2.95
2022-12-04T16:32:35.014Z,-2.97
2022-12-04T16:35:08.914Z,-2.99
2022-12-04T16:37:41.986Z,-2.98
2022-12-04T16:40:15.459Z,-2.98
2022-12-04T16:42:48.113Z,-3.03
2022-12-04T16:45:28.063Z,-3.05
2022-12-04T16:48:00.670Z,-3.06
2022-12-04T16:50:33.472Z,-3.05
2022-12-04T16:53:05.985Z,-3.03
2022-12-04T16:55:40.225Z,-3.00
2022-12-04T16:58:11.823Z,-2.89
2022-12-04T17:00:47.661Z,-2.88
2022-12-04T17:03:30.031Z,-2.92
2022-12-04T17:06:02.788Z,-2.95
2022-12-04T17:08:35.881Z,-2.98
2022-12-04T17:11:08.367Z,-3.04
2022-12-04T17:13:40.913Z,-3.08
2022-12-04T17:16:15.198Z,-3.13
2022-12-04T17:18:46.889Z,-3.15
2022-12-04T17:21:19.794Z,-3.21
2022-12-04T17:23:52.350Z,-3.24
2022-12-04T17:26:24.999Z,-3.25
2022-12-04T17:28:57.436Z,-3.26
2022-12-04T17:31:30.152Z,-3.28
2022-12-04T17:34:02.943Z,-3.28
2022-12-04T17:36:35.608Z,-3.30
2022-12-04T17:39:08.407Z,-3.30
2022-12-04T17:41:41.232Z,-3.31
2022-12-04T17:44:14.297Z,-3.30
2022-12-04T17:46:47.227Z,-3.28
2022-12-04T17:49:19.647Z,-3.26
2022-12-04T17:51:52.138Z,-3.27
2022-12-04T17:54:25.763Z,-3.30
2022-12-04T17:56:58.412Z,-3.29
2022-12-04T17:59:30.937Z,-3.27
2022-12-04T18:02:03.476Z,-3.26
2022-12-04T18:04:36.139Z,-3.30
2022-12-04T18:07:08.884Z,-3.32
2022-12-04T18:09:41.800Z,-3.32
2022-12-04T18:12:15.037Z,-3.33
2022-12-04T18:14:47.434Z,-3.34
2022-12-04T18:17:21.013Z,-3.37
2022-12-04T18:19:53.812Z,-3.42
2022-12-04T18:22:27.047Z,-3.42
2022-12-04T18:25:00.805Z,-3.44
2022-12-04T18:27:36.639Z,-3.47
2022-12-04T18:30:10.209Z,-3.49
2022-12-04T18:32:42.720Z,-3.55
2022-12-04T18:35:15.256Z,-3.58
2022-12-04T18:37:47.812Z,-3.61
2022-12-04T18:40:20.411Z,-3.58
2022-12-04T18:42:52.954Z,-3.59
2022-12-04T18:45:26.095Z,-3.64
2022-12-04T18:47:58.665Z,-3.71
2022-12-04T18:50:31.588Z,-3.74
2022-12-04T18:53:04.063Z,-3.76
2022-12-04T18:55:38.364Z,-3.79
2022-12-04T18:58:10.640Z,-3.80
2022-12-04T19:00:43.098Z,-3.82
2022-12-04T19:03:15.890Z,-3.83
2022-12-04T19:05:51.896Z,-3.83
2022-12-04T19:08:28.467Z,-3.86
2022-12-04T19:11:00.780Z,-3.89
2022-12-04T19:13:34.430Z,-3.90
2022-12-04T19:16:08.505Z,-3.92
2022-12-04T19:18:42.407Z,-3.95
2022-12-04T19:21:16.612Z,-3.95
2022-12-04T19:23:56.950Z,-3.99
2022-12-04T19:26:30.680Z,-3.99
2022-12-04T19:29:03.862Z,-3.98
2022-12-04T19:31:37.993Z,-4.00
2022-12-04T19:34:10.780Z,-4.00
2022-12-04T19:36:45.214Z,-3.99
2022-12-04T19:39:17.906Z,-4.01
2022-12-04T19:41:50.213Z,-4.02
2022-12-04T19:46:56.247Z,-4.03
2022-12-04T19:49:28.677Z,-4.04
2022-12-04T19:52:01.379Z,-4.08
2022-12-04T19:54:34.043Z,-4.10
2022-12-04T19:57:09.692Z,-4.13
2022-12-04T19:59:46.229Z,-4.15
2022-12-04T20:02:16.736Z,-4.16
2022-12-04T20:04:49.227Z,-4.21
2022-12-04T20:07:21.691Z,-4.19
2022-12-04T20:09:56.154Z,-4.17
2022-12-04T20:12:29.565Z,-4.16
2022-12-04T20:15:02.333Z,-4.21
2022-12-04T20:17:34.975Z,-4.24
2022-12-04T20:20:09.258Z,-4.25
2022-12-04T20:22:41.925Z,-4.26
2022-12-04T20:25:14.398Z,-4.27
2022-12-04T20:27:48.150Z,-4.31
2022-12-04T20:30:20.894Z,-4.35
2022-12-04T20:32:53.270Z,-4.37
2022-12-04T20:35:25.956Z,-4.43
2022-12-04T20:37:58.501Z,-4.42
2022-12-04T20:40:30.947Z,-4.42
2022-12-04T20:43:03.331Z,-4.42
2022-12-04T20:45:35.896Z,-4.42
2022-12-04T20:48:08.758Z,-4.47
2022-12-04T20:50:42.947Z,-4.51
2022-12-04T20:53:14.787Z,-4.51
2022-12-04T20:55:57.064Z,-4.49
2022-12-04T20:58:29.842Z,-4.49
2022-12-04T21:01:08.538Z,-4.50
2022-12-04T21:03:41.142Z,-4.51
2022-12-04T21:06:29.615Z,-4.54
2022-12-04T21:09:01.760Z,-4.60
2022-12-04T21:11:40.917Z,-4.65
2022-12-04T21:14:40.335Z,-4.63
2022-12-04T21:17:18.737Z,-4.64
2022-12-04T21:19:52.776Z,-4.62
2022-12-04T21:22:25.114Z,-4.60
2022-12-04T21:24:57.719Z,-4.63
2022-12-04T21:27:30.945Z,-4.68
2022-12-04T21:30:04.343Z,-4.72
2022-12-04T21:32:36.995Z,-4.74
2022-12-04T21:35:10.096Z,-4.74
2022-12-04T21:37:42.892Z,-4.71
2022-12-04T21:40:15.876Z,-4.75
2022-12-04T21:42:48.206Z,-4.76
2022-12-04T21:45:20.839Z,-4.76
2022-12-04T21:47:53.546Z,-4.76
2022-12-04T21:50:26.544Z,-4.78
2022-12-04T21:52:58.952Z,-4.80
2022-12-04T21:55:31.376Z,-4.82
2022-12-04T21:58:04.993Z,-4.80
2022-12-04T22:00:38.249Z,-4.81
2022-12-04T22:03:12.561Z,-4.82
2022-12-04T22:05:45.004Z,-4.86
2022-12-04T22:08:17.475Z,-4.87
2022-12-04T22:10:49.946Z,-4.86
2022-12-04T22:13:22.627Z,-4.90
2022-12-04T22:15:55.178Z,-4.91
2022-12-04T22:18:29.139Z,-4.87
2022-12-04T22:21:03.875Z,-4.92
2022-12-04T22:23:36.540Z,-4.95
2022-12-04T22:26:16.023Z,-4.98
2022-12-04T22:28:48.469Z,-4.96
2022-12-04T22:31:23.063Z,-4.99
2022-12-04T22:33:58.139Z,-4.99
2022-12-04T22:36:32.891Z,-5.00
2022-12-04T22:39:09.727Z,-5.03
2022-12-04T22:41:39.847Z,-5.03
2022-12-04T22:44:13.422Z,-5.02
2022-12-04T22:46:46.041Z,-5.04
2022-12-04T22:49:18.615Z,-5.06
2022-12-04T22:51:52.250Z,-5.07
2022-12-04T22:54:24.683Z,-5.06
2022-12-04T22:56:57.245Z,-5.06
2022-12-04T22:59:29.947Z,-5.09
2022-12-04T23:02:02.563Z,-5.12
2022-12-04T23:04:35.304Z,-5.11
2022-12-04T23:07:07.934Z,-5.12
2022-12-04T23:09:40.796Z,-5.14
2022-12-04T23:12:15.188Z,-5.17
2022-12-04T23:14:47.649Z,-5.18
2022-12-04T23:17:20.627Z,-5.17
2022-12-04T23:19:53.651Z,-5.19
2022-12-04T23:22:26.365Z,-5.21
2022-12-04T23:24:59.005Z,-5.24
2022-12-04T23:27:33.417Z,-5.22
2022-12-04T23:30:07.063Z,-5.22
2022-12-04T23:32:39.807Z,-5.20
2022-12-04T23:35:12.443Z,-5.22
2022-12-04T23:37:44.802Z,-5.26
2022-12-04T23:40:17.388Z,-5.29
2022-12-04T23:42:49.899Z,-5.33
2022-12-04T23:45:22.325Z,-5.33
2022-12-04T23:47:56.004Z,-5.33
2022-12-04T23:50:28.176Z,-5.32
2022-12-04T23:53:00.524Z,-5.35
2022-12-04T23:55:34.765Z,-5.40
2022-12-04T23:58:07.843Z,-5.44
